createdAt,value
2023-02-24T00:00:38.480Z,3.00
2023-02-24T00:05:42.810Z,2.88
2023-02-24T00:10:44.517Z,2.80
2023-02-24T00:15:46.111Z,3.08
2023-02-24T00:20:48.054Z,2.78
2023-02-24T00:25:57.906Z,2.10
2023-02-24T00:31:11.467Z,2.55
2023-02-24T00:36:24.692Z,2.53
2023-02-24T00:41:29.390Z,2.55
2023-02-24T00:46:31.593Z,2.45
2023-02-24T00:51:39.100Z,2.20
2023-02-24T00:56:45.317Z,2.45
2023-02-24T01:01:49.422Z,2.25
2023-02-24T01:07:00.118Z,1.95
2023-02-24T01:12:21.946Z,1.95
2023-02-24T01:17:23.683Z,1.92
2023-02-24T01:22:25.234Z,1.80
2023-02-24T01:27:26.814Z,1.67
2023-02-24T01:32:29.047Z,1.73
2023-02-24T01:37:30.715Z,2.17
2023-02-24T01:42:32.906Z,1.73
2023-02-24T01:47:34.434Z,1.67
2023-02-24T01:52:37.546Z,2.10
2023-02-24T01:57:39.683Z,1.63
2023-02-24T02:02:45.767Z,1.60
2023-02-24T02:07:47.370Z,1.70
2023-02-24T02:12:51.287Z,1.60
2023-02-24T02:18:05.041Z,2.08
2023-02-24T02:23:35.603Z,1.40
2023-02-24T02:28:58.383Z,1.35
2023-02-24T02:34:33.405Z,1.77
2023-02-24T02:39:44.316Z,1.58
2023-02-24T02:45:14.568Z,1.50
2023-02-24T02:50:29.809Z,1.70
2023-02-24T02:55:53.461Z,1.85
2023-02-24T03:01:02.447Z,1.55
2023-02-24T03:06:14.588Z,1.40
2023-02-24T03:11:17.694Z,1.40
2023-02-24T03:16:23.114Z,1.25
2023-02-24T03:21:51.843Z,1.55
2023-02-24T03:27:23.090Z,1.80
2023-02-24T03:32:34.287Z,1.70
2023-02-24T03:37:36.920Z,1.60
2023-02-24T03:42:43.239Z,1.45
2023-02-24T03:47:47.576Z,1.55
2023-02-24T03:53:16.236Z,1.95
2023-02-24T03:58:21.328Z,1.88
2023-02-24T04:03:32.465Z,1.67
2023-02-24T04:08:53.801Z,1.45
2023-02-24T04:14:06.502Z,1.40
2023-02-24T04:19:14.300Z,1.60
2023-02-24T04:24:21.367Z,1.58
2023-02-24T04:29:25.704Z,1.60
2023-02-24T04:34:32.368Z,2.13
2023-02-24T04:39:38.389Z,2.45
2023-02-24T04:44:39.917Z,1.83
2023-02-24T04:49:41.395Z,2.40
2023-02-24T04:54:44.510Z,1.95
2023-02-24T04:59:46.933Z,2.60
2023-02-24T05:04:49.752Z,3.20
2023-02-24T05:09:51.303Z,2.50
2023-02-24T05:14:52.822Z,2.97
2023-02-24T05:20:12.882Z,2.83
2023-02-24T05:25:14.409Z,3.47
2023-02-24T05:30:15.973Z,3.80
2023-02-24T05:35:17.668Z,3.70
2023-02-24T05:40:20.844Z,3.88
2023-02-24T05:45:22.607Z,3.88
2023-02-24T05:50:26.474Z,3.25
2023-02-24T05:55:27.932Z,3.80
2023-02-24T06:00:29.460Z,3.83
2023-02-24T06:05:31.003Z,3.72
2023-02-24T06:10:34.360Z,3.28
2023-02-24T06:15:37.432Z,3.15
2023-02-24T06:20:39.250Z,3.83
2023-02-24T06:25:41.825Z,3.97
2023-02-24T06:30:43.399Z,3.85
2023-02-24T06:35:44.939Z,3.13
2023-02-24T06:40:47.512Z,2.97
2023-02-24T06:45:50.184Z,4.88
2023-02-24T06:50:51.887Z,3.20
2023-02-24T06:55:53.371Z,3.63
2023-02-24T07:00:57.785Z,3.72
2023-02-24T07:06:20.308Z,3.05
2023-02-24T07:11:22.154Z,3.42
2023-02-24T07:16:25.238Z,3.83
2023-02-24T07:21:30.178Z,3.70
2023-02-24T07:26:31.938Z,3.42
2023-02-24T07:31:34.530Z,3.80
2023-02-24T07:36:49.111Z,3.85
2023-02-24T07:41:53.242Z,3.28
2023-02-24T07:46:55.076Z,3.92
2023-02-24T07:51:57.997Z,3.38
2023-02-24T07:57:00.000Z,3.40
2023-02-24T08:02:04.753Z,3.55
2023-02-24T08:07:14.325Z,4.45
2023-02-24T08:12:21.612Z,4.57
2023-02-24T08:17:26.476Z,3.72
2023-02-24T08:22:35.983Z,4.20
2023-02-24T08:27:40.732Z,4.03
2023-02-24T08:32:46.928Z,5.00
2023-02-24T08:37:52.063Z,5.43
2023-02-24T08:42:53.554Z,5.60
2023-02-24T08:48:00.556Z,5.60
2023-02-24T08:53:02.076Z,5.57
2023-02-24T08:58:03.614Z,5.72
2023-02-24T09:03:08.291Z,6.28
2023-02-24T09:08:09.842Z,6.78
2023-02-24T09:13:12.237Z,6.40
2023-02-24T09:18:14.388Z,8.10
2023-02-24T09:23:20.200Z,8.60
2023-02-24T09:28:26.700Z,8.23
2023-02-24T09:33:29.800Z,8.82
2023-02-24T09:38:57.181Z,10.25
2023-02-24T09:44:07.604Z,9.27
2023-02-24T09:49:17.352Z,10.48
2023-02-24T09:54:24.660Z,10.63
2023-02-24T10:00:23.106Z,10.25
2023-02-24T10:05:38.464Z,9.13
2023-02-24T10:11:00.580Z,5.85
2023-02-24T10:16:07.136Z,4.30
2023-02-24T10:21:48.175Z,4.65
2023-02-24T10:27:01.210Z,6.07
2023-02-24T10:32:41.350Z,4.97
2023-02-24T10:37:43.023Z,5.53
2023-02-24T10:42:47.895Z,5.07
2023-02-24T10:47:57.857Z,4.85
2023-02-24T10:53:26.735Z,6.03
2023-02-24T10:58:53.282Z,5.18
2023-02-24T11:04:12.271Z,5.35
2023-02-24T11:09:29.217Z,5.65
2023-02-24T11:14:50.641Z,5.88
2023-02-24T11:20:18.015Z,6.10
2023-02-24T11:25:24.645Z,6.17
2023-02-24T11:30:46.148Z,6.22
2023-02-24T11:36:25.158Z,6.50
2023-02-24T11:41:41.060Z,6.40
2023-02-24T11:46:50.087Z,7.28
2023-02-24T11:51:53.218Z,6.18
2023-02-24T11:56:59.402Z,6.03
2023-02-24T12:02:19.129Z,6.93
2023-02-24T12:07:54.790Z,6.70
2023-02-24T12:13:11.180Z,5.93
2023-02-24T12:18:33.969Z,5.22
2023-02-24T12:23:44.609Z,5.03
2023-02-24T12:29:30.059Z,5.35
2023-02-24T12:34:47.468Z,5.43
2023-02-24T12:40:00.661Z,5.60
2023-02-24T12:45:19.834Z,4.03
2023-02-24T12:50:30.952Z,3.45
2023-02-24T12:55:50.656Z,3.05
2023-02-24T13:01:10.710Z,3.38
2023-02-24T13:06:20.715Z,4.70
2023-02-24T13:11:49.904Z,4.47
2023-02-24T13:16:51.584Z,4.20
2023-02-24T13:22:21.735Z,5.43
2023-02-24T13:27:29.253Z,3.95
2023-02-24T13:32:34.782Z,2.47
2023-02-24T13:37:41.228Z,2.60
2023-02-24T13:43:01.725Z,1.80
2023-02-24T13:48:36.980Z,1.75
2023-02-24T13:54:05.622Z,1.70
2023-02-24T13:59:44.823Z,1.95
2023-02-24T14:04:52.209Z,2.10
2023-02-24T14:10:00.390Z,2.35
2023-02-24T14:15:04.120Z,1.75
2023-02-24T14:20:08.932Z,2.00
2023-02-24T14:25:11.921Z,2.03
2023-02-24T14:30:40.156Z,2.53
2023-02-24T14:40:48.898Z,2.72
2023-02-24T14:45:52.828Z,2.40
2023-02-24T14:51:02.718Z,2.38
2023-02-24T14:56:06.260Z,3.15
2023-02-24T15:01:30.485Z,3.95
2023-02-24T15:06:40.713Z,3.08
2023-02-24T15:11:43.738Z,2.05
2023-02-24T15:16:49.405Z,1.90
2023-02-24T15:21:50.972Z,2.88
2023-02-24T15:27:23.894Z,2.83
2023-02-24T15:32:27.711Z,3.63
2023-02-24T15:37:41.827Z,2.97
2023-02-24T15:42:50.741Z,3.40
2023-02-24T15:47:54.952Z,3.75
2023-02-24T15:52:59.566Z,3.58
2023-02-24T15:58:03.321Z,3.95
2023-02-24T16:03:04.949Z,4.78
2023-02-24T16:08:19.780Z,3.55
2023-02-24T16:13:23.916Z,3.63
2023-02-24T16:18:25.956Z,3.45
2023-02-24T16:23:27.555Z,2.78
2023-02-24T16:28:31.650Z,2.22
2023-02-24T16:33:48.019Z,2.60
2023-02-24T16:38:55.030Z,2.88
2023-02-24T16:43:56.521Z,3.97
2023-02-24T16:48:57.997Z,3.35
2023-02-24T16:53:59.516Z,2.70
2023-02-24T16:59:01.034Z,3.40
2023-02-24T17:04:05.214Z,3.08
2023-02-24T17:09:07.184Z,3.42
2023-02-24T17:14:16.964Z,4.40
2023-02-24T17:19:18.493Z,3.83
2023-02-24T17:24:21.604Z,3.63
2023-02-24T17:29:23.131Z,5.18
2023-02-24T17:34:24.650Z,4.93
2023-02-24T17:39:26.234Z,5.55
2023-02-24T17:44:28.113Z,5.35
2023-02-24T17:49:31.121Z,5.65
2023-02-24T17:54:33.044Z,4.88
2023-02-24T17:59:35.968Z,5.07
2023-02-24T18:04:37.742Z,9.52
2023-02-24T18:09:39.258Z,9.32
2023-02-24T18:14:40.854Z,9.20
2023-02-24T18:19:42.473Z,7.50
2023-02-24T18:24:44.073Z,5.65
2023-02-24T18:29:45.612Z,4.95
2023-02-24T18:34:47.132Z,4.80
2023-02-24T18:39:48.685Z,5.00
2023-02-24T18:44:50.186Z,4.55
2023-02-24T18:49:51.704Z,5.43
2023-02-24T18:54:53.201Z,4.35
2023-02-24T18:59:54.787Z,4.20
2023-02-24T19:04:56.387Z,4.90
2023-02-24T19:09:57.896Z,4.20
2023-02-24T19:14:59.421Z,3.05
2023-02-24T19:20:00.954Z,4.68
2023-02-24T19:25:02.508Z,4.32
2023-02-24T19:30:04.848Z,3.38
2023-02-24T19:35:07.641Z,2.85
2023-02-24T19:40:09.822Z,4.30
2023-02-24T19:45:11.420Z,3.35
2023-02-24T19:50:15.161Z,2.70
2023-02-24T19:55:16.702Z,2.85
2023-02-24T20:00:20.810Z,3.10
2023-02-24T20:05:22.788Z,2.10
2023-02-24T20:10:24.332Z,2.97
2023-02-24T20:15:25.821Z,3.53
2023-02-24T20:20:27.342Z,2.97
2023-02-24T20:25:29.042Z,2.70
2023-02-24T20:30:30.781Z,2.20
2023-02-24T20:35:32.401Z,2.88
2023-02-24T20:40:34.160Z,2.92
2023-02-24T20:45:38.068Z,2.75
2023-02-24T20:50:39.707Z,4.18
2023-02-24T20:55:41.267Z,3.00
2023-02-24T21:00:44.356Z,3.38
2023-02-24T21:05:45.887Z,3.85
2023-02-24T21:10:47.472Z,3.58
2023-02-24T21:15:53.557Z,3.33
2023-02-24T21:20:55.065Z,3.90
2023-02-24T21:25:56.661Z,2.13
2023-02-24T21:30:58.401Z,3.95
2023-02-24T21:36:03.262Z,2.65
2023-02-24T21:41:07.282Z,2.90
2023-02-24T21:46:09.081Z,3.78
2023-02-24T21:51:13.583Z,3.53
2023-02-24T21:56:18.366Z,3.13
2023-02-24T22:01:25.618Z,3.70
2023-02-24T22:06:31.265Z,4.97
2023-02-24T22:11:36.017Z,3.88
2023-02-24T22:16:38.143Z,4.20
2023-02-24T22:21:42.371Z,3.63
2023-02-24T22:26:44.370Z,3.72
2023-02-24T22:31:49.533Z,3.58
2023-02-24T22:36:51.372Z,3.28
2023-02-24T22:41:52.929Z,3.40
2023-02-24T22:46:54.533Z,3.30
2023-02-24T22:51:56.164Z,3.13
2023-02-24T22:56:57.639Z,3.20
2023-02-24T23:01:59.754Z,2.83
2023-02-24T23:07:02.280Z,3.83
2023-02-24T23:12:04.041Z,3.80
2023-02-24T23:17:05.620Z,3.13
2023-02-24T23:22:07.956Z,2.47
2023-02-24T23:27:09.864Z,2.92
2023-02-24T23:32:11.485Z,2.90
2023-02-24T23:37:14.380Z,3.60
2023-02-24T23:42:18.123Z,2.95
2023-02-24T23:47:19.653Z,3.20
2023-02-24T23:52:21.266Z,4.22
2023-02-24T23:57:23.058Z,3.30
